• Join FlightAware (Why Join?)
  • Login
  • US Flag 
02:38AM EDT


 

Airport Tracker/Info


-or-


 

Live Flight TrackerFlight Track Log ✈ N284PA ✈ 17-Jan-2014 ✈ KNYL - KCGZ

Flight Track Log - Related Links

Times and Time Zones

All times are in EST time to prevent confusion due to time zone crossing. See the N284PA flight status page for this flight to view local times or setup timezone preferences in your user account.

Time Position Orientation Groundspeed Altitude Reporting Facility
EST Latitude Longitude Course Direction KTS MPH feet Rate Location/Type
10:03PM 32.6889 -114.6044 359° North 61 70 1,200  Level Los Angeles Center
10:04PM 32.6989 -114.6042 North 60 69 1,600 600 Climbing Los Angeles Center
10:04PM 32.7061 -114.6050 354° North 67 77 1,800 660 Climbing Los Angeles Center
10:05PM 32.7194 -114.6031 North 67 77 2,300 660 Climbing Los Angeles Center
10:05PM 32.7253 -114.6050 344° North 72 83 2,500 660 Climbing Los Angeles Center
10:06PM 32.7422 -114.6033 North 68 78 3,000 600 Climbing Los Angeles Center
10:06PM 32.7467 -114.6042 351° North 76 87 3,100 600 Climbing Los Angeles Center
10:07PM 32.7700 -114.6031 North 78 90 3,700 540 Climbing Los Angeles Center
10:08PM 32.7775 -114.5844 64° Northeast 85 98 4,200 540 Climbing Los Angeles Center
10:08PM 32.7747 -114.5839 170° South 87 100 4,300 540 Climbing Los Angeles Center
10:09PM 32.7672 -114.5608 111° Southeast 84 97 4,800 480 Climbing Los Angeles Center
10:09PM 32.7681 -114.5606 16° North 77 89 4,800 480 Level Los Angeles Center
10:10PM 32.7675 -114.5358 92° East 78 90 5,300 480 Climbing Los Angeles Center
10:10PM 32.7697 -114.5347 23° Northeast 74 85 5,300 480 Level Los Angeles Center
10:11PM 32.7669 -114.5114 98° East 76 87 5,800 480 Climbing Los Angeles Center
10:11PM 32.7692 -114.5094 36° Northeast 76 87 5,800 480 Level Los Angeles Center
10:12PM 32.7686 -114.4864 92° East 75 86 6,300 480 Climbing Los Angeles Center
10:12PM 32.7700 -114.4814 72° East 73 84 6,400 360 Climbing Los Angeles Center
10:13PM 32.7692 -114.4567 92° East 75 86 6,700 360 Climbing Los Angeles Center
10:13PM 32.7694 -114.4561 59° Northeast 76 87 6,800 240 Climbing Los Angeles Center
10:14PM 32.7689 -114.4311 92° East 77 89 7,000 120 Climbing Los Angeles Center
10:15PM 32.7686 -114.4025 91° East 81 93 7,100 60 Climbing Los Angeles Center
10:15PM 32.7694 -114.4006 63° Northeast 94 108 7,100 -120 Level Los Angeles Center
10:16PM 32.7692 -114.3683 91° East 93 107 7,000 -60 Descending Los Angeles Center
10:17PM 32.7700 -114.3369 88° East 103 119 7,000  Level Los Angeles Center
10:17PM 32.7694 -114.3344 105° East 99 114 7,000 60 Level Los Angeles Center
10:18PM 32.7700 -114.3039 89° East 102 117 7,100 60 Climbing Los Angeles Center
10:18PM 32.7700 -114.3008 90° East 101 116 7,100 -120 Level Los Angeles Center
10:19PM 32.7711 -114.2672 88° East 102 117 7,000 -60 Descending Los Angeles Center
10:20PM 32.7731 -114.2322 86° East 105 121 7,000  Level Los Angeles Center
10:20PM 32.7706 -114.2253 113° Southeast 104 120 7,000  Level Los Angeles Center
10:21PM 32.7728 -114.1967 85° East 103 119 7,000  Level Los Angeles Center
10:21PM 32.7711 -114.1919 113° Southeast 103 119 7,000  Level Los Angeles Center
10:22PM 32.7728 -114.1639 86° East 99 114 7,000  Level Los Angeles Center
10:22PM 32.7753 -114.1594 56° Northeast 101 116 7,000  Level Los Angeles Center
10:23PM 32.7725 -114.1308 97° East 97 112 7,000  Level Los Angeles Center
10:23PM 32.7739 -114.1272 65° Northeast 100 115 7,000  Level Los Angeles Center
10:24PM 32.7750 -114.0997 87° East 99 114 7,000  Level Los Angeles Center
10:24PM 32.7728 -114.0944 117° Southeast 99 114 7,000  Level Los Angeles Center
10:25PM 32.7742 -114.0619 87° East 100 115 7,000  Level Los Angeles Center
10:25PM 32.7747 -114.0606 65° Northeast 100 115 7,000  Level Los Angeles Center
10:26PM 32.7742 -114.0289 91° East 101 116 7,000  Level Los Angeles Center
10:26PM 32.7736 -114.0281 128° Southeast 100 115 7,000  Level Los Angeles Center
10:27PM 32.7756 -113.9931 86° East 101 116 7,000  Level Los Angeles Center
10:28PM 32.7736 -113.9889 119° Southeast 100 115 7,000  Level Los Angeles Center
10:28PM 32.7761 -113.9625 84° East 102 117 7,000  Level Los Angeles Center
10:29PM 32.7789 -113.9558 64° Northeast 100 115 7,000  Level Los Angeles Center
10:29PM 32.7825 -113.9303 80° East 101 116 7,000  Level Los Angeles Center
10:30PM 32.7842 -113.9231 75° East 100 115 7,000  Level Los Angeles Center
10:30PM 32.7861 -113.8936 86° East 102 117 7,000 60 Level Los Angeles Center
10:31PM 32.7881 -113.8892 63° Northeast 102 117 7,100  Climbing Los Angeles Center
10:32PM 32.7936 -113.8561 79° East 102 117 7,000  Descending Los Angeles Center
10:33PM 32.7989 -113.8233 79° East 102 117 7,100  Climbing Los Angeles Center
10:34PM 32.8047 -113.7906 78° East 101 116 7,100 -60 Level Los Angeles Center
10:35PM 32.8089 -113.7589 81° East 100 115 7,000 -60 Descending Los Angeles Center
10:36PM 32.8131 -113.7192 83° East 100 115 7,000  Level Los Angeles Center
10:37PM 32.8197 -113.6889 75° East 96 110 7,000  Level Los Angeles Center
10:38PM 32.8231 -113.6575 83° East 96 110 7,000  Level Los Angeles Center
10:39PM 32.8269 -113.6261 82° East 97 112 7,000  Level Los Angeles Center
10:40PM 32.8314 -113.5942 81° East 97 112 7,000  Level Los Angeles Center
10:41PM 32.8361 -113.5636 80° East 96 110 7,000  Level Los Angeles Center
10:42PM 32.8408 -113.5325 80° East 96 110 7,000  Level Los Angeles Center
10:43PM 32.8458 -113.4944 81° East 97 112 7,000  Level Los Angeles Center
10:44PM 32.8489 -113.4686 82° East 98 113 7,000  Level Los Angeles Center
10:45PM 32.8542 -113.4306 81° East 97 112 7,000  Level Los Angeles Center
10:46PM 32.8583 -113.3992 81° East 97 112 7,000  Level Los Angeles Center
10:47PM 32.8622 -113.3681 82° East 96 110 7,000  Level Los Angeles Center
10:48PM 32.8625 -113.3483 89° East 91 105 7,000  Level Albuquerque Center
10:48PM 32.8636 -113.3431 76° East 91 105 7,000  Level Albuquerque Center
10:49PM 32.8669 -113.3119 83° East 95 109 7,000  Level Albuquerque Center
10:49PM 32.8708 -113.2942 75° East 94 108 7,100  Climbing Albuquerque Center
10:50PM 32.8725 -113.2828 80° East 95 109 7,000 -120 Descending Albuquerque Center
10:50PM 32.8758 -113.2625 79° East 95 109 7,000  Level Albuquerque Center
10:51PM 32.8756 -113.2519 92° East 96 110 7,000  Level Albuquerque Center
10:52PM 32.8811 -113.2314 72° East 96 110 7,000 60 Level Albuquerque Center
10:52PM 32.8806 -113.2178 93° East 95 109 7,100 60 Climbing Albuquerque Center
10:53PM 32.8850 -113.2019 72° East 92 106 7,100 -120 Level Albuquerque Center
10:53PM 32.8861 -113.1886 84° East 94 108 7,000 -120 Descending Albuquerque Center
10:54PM 32.8900 -113.1633 80° East 95 109 7,000  Level Albuquerque Center
10:55PM 32.8953 -113.1308 79° East 98 113 7,000  Level Albuquerque Center
10:56PM 32.8992 -113.0989 82° East 98 113 7,000  Level Albuquerque Center
10:57PM 32.9028 -113.0669 82° East 97 112 7,000  Level Albuquerque Center
10:58PM 32.9069 -113.0361 81° East 95 109 7,100  Climbing Albuquerque Center
10:59PM 32.9106 -113.0047 82° East 95 109 7,000 -60 Descending Albuquerque Center
11:00PM 32.9150 -112.9728 81° East 97 112 7,000  Level Albuquerque Center
11:01PM 32.9197 -112.9425 79° East 94 108 7,000  Level Albuquerque Center
11:02PM 32.9244 -112.9114 80° East 95 109 7,000  Level Albuquerque Center
11:03PM 32.9286 -112.8803 81° East 95 109 7,000  Level Albuquerque Center
11:04PM 32.9336 -112.8500 79° East 93 107 7,000  Level Albuquerque Center
11:05PM 32.9378 -112.8131 82° East 93 107 7,000  Level Albuquerque Center
11:06PM 32.9414 -112.7831 82° East 92 106 7,000  Level Albuquerque Center
11:07PM 32.9464 -112.7522 79° East 93 107 7,000  Level Albuquerque Center
11:08PM 32.9494 -112.7214 83° East 93 107 7,000  Level Albuquerque Center
11:09PM 32.9542 -112.6903 80° East 94 108 7,000  Level Albuquerque Center
11:10PM 32.9556 -112.6592 87° East 93 107 7,000  Level Albuquerque Center
11:11PM 32.9517 -112.6267 98° East 95 109 7,000  Level Albuquerque Center
11:12PM 32.9494 -112.5947 95° East 97 112 7,100  Climbing Albuquerque Center
11:13PM 32.9428 -112.5633 104° East 96 110 7,000 -60 Descending Albuquerque Center
11:14PM 32.9372 -112.5314 102° East 97 112 7,000  Level Albuquerque Center
11:15PM 32.9347 -112.4981 95° East 99 114 7,000  Level Albuquerque Center
11:16PM 32.9331 -112.4581 93° East 101 116 7,000  Level Albuquerque Center
11:17PM 32.9319 -112.4272 92° East 98 113 7,000  Level Albuquerque Center
11:18PM 32.9300 -112.3953 94° East 96 110 7,000  Level Albuquerque Center
11:19PM 32.9278 -112.3625 95° East 98 113 7,000  Level Albuquerque Center
11:20PM 32.9239 -112.3306 98° East 99 114 7,000  Level Albuquerque Center
11:21PM 32.9219 -112.2994 94° East 96 110 7,000  Level Albuquerque Center
11:22PM 32.9194 -112.2667 95° East 97 112 7,000  Level Albuquerque Center
11:23PM 32.9167 -112.2325 96° East 100 115 7,000  Level Albuquerque Center